createdAt,value
2018-07-30T00:02:08.014Z,49.73
2018-07-30T00:07:00.570Z,50.66
2018-07-30T00:11:53.150Z,50.15
2018-07-30T00:16:45.754Z,50.91
2018-07-30T00:21:38.319Z,51.31
2018-07-30T00:26:30.856Z,50.91
2018-07-30T00:31:23.417Z,51.49
2018-07-30T00:36:16.364Z,52.21
2018-07-30T00:41:08.967Z,51.89
2018-07-30T00:46:01.588Z,52.09
2018-07-30T00:50:54.105Z,52.17
2018-07-30T00:55:46.652Z,52.17
2018-07-30T01:00:39.233Z,52.51
2018-07-30T01:05:31.824Z,52.53
2018-07-30T01:10:24.410Z,51.82
2018-07-30T01:15:16.946Z,52.73
2018-07-30T01:20:09.486Z,52.56
2018-07-30T01:25:02.065Z,52.59
2018-07-30T01:29:54.621Z,52.07
2018-07-30T01:34:47.188Z,52.28
2018-07-30T01:39:39.814Z,52.84
2018-07-30T01:44:32.338Z,52.97
2018-07-30T01:49:24.925Z,51.92
2018-07-30T01:54:17.457Z,52.00
2018-07-30T01:59:10.044Z,52.88
2018-07-30T02:04:02.541Z,52.28
2018-07-30T02:08:55.177Z,53.11
2018-07-30T02:13:47.713Z,53.20
2018-07-30T02:18:40.230Z,53.50
2018-07-30T02:23:32.771Z,52.87
2018-07-30T02:28:25.374Z,53.31
2018-07-30T02:33:17.935Z,52.75
2018-07-30T02:38:10.572Z,52.70
2018-07-30T02:43:03.150Z,52.73
2018-07-30T02:47:55.759Z,53.41
2018-07-30T02:52:48.293Z,53.22
2018-07-30T02:57:40.866Z,52.14
2018-07-30T03:02:33.430Z,52.67
2018-07-30T03:07:26.122Z,52.40
2018-07-30T03:12:18.763Z,52.31
2018-07-30T03:17:11.369Z,52.25
2018-07-30T03:22:03.934Z,51.72
2018-07-30T03:26:56.501Z,51.46
2018-07-30T03:31:49.049Z,52.21
2018-07-30T03:36:41.691Z,52.31
2018-07-30T03:41:34.296Z,51.77
2018-07-30T03:46:26.866Z,52.91
2018-07-30T03:51:19.426Z,53.06
2018-07-30T03:56:12.116Z,52.62
2018-07-30T04:01:04.716Z,52.39
2018-07-30T04:05:57.470Z,53.19
2018-07-30T04:10:50.110Z,52.40
2018-07-30T04:15:42.894Z,53.54
2018-07-30T04:20:35.579Z,53.02
2018-07-30T04:25:28.127Z,53.86
2018-07-30T04:30:20.674Z,53.88
2018-07-30T04:35:13.399Z,54.27
2018-07-30T04:40:06.031Z,54.50
2018-07-30T04:44:58.668Z,54.51
2018-07-30T04:49:51.307Z,54.71
2018-07-30T04:54:43.902Z,54.88
2018-07-30T04:59:36.447Z,54.16
2018-07-30T05:04:28.993Z,55.01
2018-07-30T05:09:21.564Z,54.66
2018-07-30T05:14:14.210Z,54.66
2018-07-30T05:19:06.748Z,55.52
2018-07-30T05:23:59.398Z,55.28
2018-07-30T05:28:51.987Z,55.87
2018-07-30T05:33:44.576Z,56.02
2018-07-30T05:38:37.190Z,55.33
2018-07-30T05:43:29.702Z,56.07
2018-07-30T05:48:22.311Z,55.94
2018-07-30T05:53:14.898Z,55.75
2018-07-30T05:58:07.789Z,56.71
2018-07-30T06:03:00.413Z,56.32
2018-07-30T06:07:53.006Z,56.14
2018-07-30T06:12:45.745Z,57.15
2018-07-30T06:17:38.374Z,56.72
2018-07-30T06:22:31.001Z,56.38
2018-07-30T06:27:23.599Z,56.11
2018-07-30T06:32:16.223Z,57.33
2018-07-30T06:37:08.893Z,56.23
2018-07-30T06:42:01.456Z,56.73
2018-07-30T06:46:54.067Z,56.81
2018-07-30T06:51:46.654Z,56.95
2018-07-30T06:56:39.240Z,57.72
2018-07-30T07:01:31.815Z,57.72
2018-07-30T07:06:24.397Z,56.93
2018-07-30T07:11:17.020Z,57.70
2018-07-30T07:16:09.541Z,56.93
2018-07-30T07:21:02.111Z,56.88
2018-07-30T07:25:54.744Z,57.66
2018-07-30T07:30:47.427Z,56.44
2018-07-30T07:35:39.990Z,56.04
2018-07-30T07:40:32.571Z,54.55
2018-07-30T07:45:25.195Z,52.45
2018-07-30T07:50:17.965Z,49.77
2018-07-30T07:55:10.516Z,47.93
2018-07-30T08:00:05.638Z,45.57
2018-07-30T08:04:58.284Z,43.03
2018-07-30T08:09:51.053Z,42.31
2018-07-30T08:14:43.539Z,41.79
2018-07-30T08:19:36.126Z,40.49
2018-07-30T08:24:28.809Z,41.35
2018-07-30T08:29:21.403Z,40.75
2018-07-30T08:34:14.028Z,40.10
2018-07-30T08:39:08.799Z,39.71
2018-07-30T08:44:01.359Z,39.83
2018-07-30T08:48:53.935Z,40.01
2018-07-30T08:53:46.578Z,41.28
2018-07-30T08:58:39.384Z,40.65
2018-07-30T09:03:32.054Z,39.80
2018-07-30T09:08:24.702Z,42.14
2018-07-30T09:13:17.311Z,41.06
2018-07-30T09:18:09.949Z,40.64
2018-07-30T09:23:02.551Z,39.58
2018-07-30T09:27:55.171Z,38.59
2018-07-30T09:32:47.797Z,39.05
2018-07-30T09:37:40.568Z,39.58
2018-07-30T09:42:33.224Z,40.29
2018-07-30T09:47:25.865Z,39.07
2018-07-30T09:52:18.556Z,39.02
2018-07-30T09:57:11.180Z,39.36
2018-07-30T10:02:03.801Z,37.41
2018-07-30T10:06:56.356Z,37.30
2018-07-30T10:11:49.063Z,36.31
2018-07-30T10:16:41.560Z,36.63
2018-07-30T10:21:34.186Z,36.46
2018-07-30T10:26:26.768Z,35.28
2018-07-30T10:31:19.339Z,35.02
2018-07-30T10:36:11.903Z,34.42
2018-07-30T10:41:04.599Z,33.61
2018-07-30T10:45:57.099Z,31.01
2018-07-30T10:50:49.671Z,30.79
2018-07-30T10:55:42.326Z,31.18
2018-07-30T11:00:34.906Z,30.13
2018-07-30T11:05:27.462Z,30.93
2018-07-30T11:10:19.974Z,30.72
2018-07-30T11:15:12.569Z,29.25
2018-07-30T11:20:05.346Z,28.97
2018-07-30T11:24:58.029Z,28.59
2018-07-30T11:29:50.668Z,29.52
2018-07-30T11:34:43.271Z,29.04
2018-07-30T11:39:35.844Z,29.51
2018-07-30T11:44:28.480Z,28.81
2018-07-30T11:49:21.058Z,28.25
2018-07-30T11:54:13.696Z,28.29
2018-07-30T11:59:06.246Z,28.19
2018-07-30T12:03:58.814Z,28.01
2018-07-30T12:08:51.339Z,28.69
2018-07-30T12:13:43.906Z,28.76
2018-07-30T12:18:36.548Z,28.15
2018-07-30T12:23:29.090Z,28.38
2018-07-30T12:28:21.793Z,27.87
2018-07-30T12:33:14.452Z,27.14
2018-07-30T12:38:07.191Z,27.31
2018-07-30T12:42:59.859Z,27.31
2018-07-30T12:47:52.487Z,27.50
2018-07-30T12:52:45.131Z,27.76
2018-07-30T12:57:37.765Z,27.23
2018-07-30T13:02:30.360Z,27.88
2018-07-30T13:07:23.210Z,27.66
2018-07-30T13:12:15.826Z,28.03
2018-07-30T13:17:08.491Z,27.92
2018-07-30T13:22:01.062Z,28.45
2018-07-30T13:26:53.666Z,28.72
2018-07-30T13:31:47.090Z,28.81
2018-07-30T13:36:39.899Z,28.62
2018-07-30T13:41:32.582Z,28.17
2018-07-30T13:46:25.148Z,27.53
2018-07-30T13:51:17.773Z,28.13
2018-07-30T13:56:10.655Z,29.12
2018-07-30T14:01:03.254Z,29.49
2018-07-30T14:05:55.864Z,27.96
2018-07-30T14:10:48.459Z,27.10
2018-07-30T14:15:41.134Z,27.79
2018-07-30T14:20:33.692Z,28.20
2018-07-30T14:25:26.415Z,28.99
2018-07-30T14:30:19.060Z,29.16
2018-07-30T14:35:11.716Z,28.66
2018-07-30T14:40:08.638Z,28.90
2018-07-30T14:45:01.214Z,28.77
2018-07-30T14:49:53.803Z,28.67
2018-07-30T14:54:46.639Z,28.12
2018-07-30T14:59:39.245Z,28.17
2018-07-30T15:04:31.887Z,28.61
2018-07-30T15:09:24.442Z,27.80
2018-07-30T15:14:17.272Z,27.86
2018-07-30T15:19:09.901Z,27.83
2018-07-30T15:24:02.550Z,28.47
2018-07-30T15:28:55.148Z,28.64
2018-07-30T15:33:47.689Z,27.87
2018-07-30T15:38:40.351Z,27.83
2018-07-30T15:43:33.000Z,29.13
2018-07-30T15:48:25.692Z,29.01
2018-07-30T15:53:18.259Z,29.31
2018-07-30T15:58:10.826Z,28.94
2018-07-30T16:03:03.666Z,29.21
2018-07-30T16:07:56.283Z,29.22
2018-07-30T16:12:48.807Z,29.32
2018-07-30T16:17:41.370Z,29.35
2018-07-30T16:22:33.957Z,29.94
2018-07-30T16:27:26.583Z,29.04
2018-07-30T16:32:19.371Z,29.42
2018-07-30T16:37:11.938Z,28.37
2018-07-30T16:42:04.766Z,28.50
2018-07-30T16:46:57.363Z,28.35
2018-07-30T16:51:49.967Z,28.49
2018-07-30T16:56:42.554Z,28.35
2018-07-30T17:01:35.232Z,27.53
2018-07-30T17:06:27.793Z,27.28
2018-07-30T17:11:20.429Z,27.23
2018-07-30T17:16:12.955Z,28.12
2018-07-30T17:21:06.072Z,27.60
2018-07-30T17:25:58.701Z,27.80
2018-07-30T17:30:51.272Z,26.69
2018-07-30T17:35:43.846Z,27.35
2018-07-30T17:40:36.594Z,26.45
2018-07-30T17:45:29.146Z,27.50
2018-07-30T17:50:21.738Z,26.80
2018-07-30T17:55:14.282Z,27.43
2018-07-30T18:00:08.938Z,27.09
2018-07-30T18:05:01.634Z,28.48
2018-07-30T18:09:54.715Z,28.79
2018-07-30T18:14:47.353Z,28.96
2018-07-30T18:19:39.978Z,29.25
2018-07-30T18:24:32.653Z,29.78
2018-07-30T18:29:25.246Z,29.03
2018-07-30T18:34:18.034Z,29.83
2018-07-30T18:39:10.661Z,29.12
2018-07-30T18:44:03.278Z,29.29
2018-07-30T18:48:55.841Z,30.18
2018-07-30T18:53:48.635Z,30.05
2018-07-30T18:58:41.316Z,29.29
2018-07-30T19:03:33.875Z,29.61
2018-07-30T19:08:26.451Z,29.76
2018-07-30T19:13:19.046Z,30.17
2018-07-30T19:18:11.684Z,29.32
2018-07-30T19:23:04.205Z,29.91
2018-07-30T19:27:56.766Z,29.30
2018-07-30T19:32:49.373Z,30.25
2018-07-30T19:37:41.959Z,29.65
2018-07-30T19:42:34.662Z,29.83
2018-07-30T19:47:27.353Z,29.56
2018-07-30T19:52:20.022Z,32.31
2018-07-30T19:57:12.614Z,35.38
2018-07-30T20:02:05.198Z,34.35
2018-07-30T20:06:57.863Z,34.79
2018-07-30T20:11:50.440Z,35.05
2018-07-30T20:16:43.033Z,34.70
2018-07-30T20:21:35.592Z,34.65
2018-07-30T20:26:28.433Z,35.04
2018-07-30T20:31:24.978Z,35.24
2018-07-30T20:36:17.546Z,36.00
2018-07-30T20:41:10.217Z,35.96
2018-07-30T20:46:02.838Z,35.10
2018-07-30T20:50:55.377Z,35.72
2018-07-30T20:55:48.020Z,36.02
2018-07-30T21:00:40.588Z,36.39
2018-07-30T21:05:37.960Z,35.10
2018-07-30T21:10:30.564Z,36.61
2018-07-30T21:15:23.078Z,35.99
2018-07-30T21:20:15.645Z,37.13
2018-07-30T21:25:08.226Z,37.21
2018-07-30T21:30:00.757Z,36.94
2018-07-30T21:34:53.365Z,36.81
2018-07-30T21:39:46.001Z,37.96
2018-07-30T21:44:38.568Z,36.94
2018-07-30T21:49:31.172Z,38.04
2018-07-30T21:54:23.783Z,38.21
2018-07-30T21:59:16.293Z,38.14
2018-07-30T22:04:08.987Z,37.45
2018-07-30T22:09:01.555Z,38.02
2018-07-30T22:13:54.114Z,38.60
2018-07-30T22:18:46.754Z,38.20
2018-07-30T22:23:39.353Z,38.13
2018-07-30T22:28:31.956Z,37.90
2018-07-30T22:33:24.486Z,38.51
2018-07-30T22:38:17.095Z,38.15
2018-07-30T22:43:10.198Z,38.41
2018-07-30T22:48:02.727Z,38.63
2018-07-30T22:52:55.310Z,38.59
2018-07-30T22:57:47.859Z,38.51
2018-07-30T23:02:40.415Z,38.92
2018-07-30T23:07:32.966Z,38.31
2018-07-30T23:12:25.506Z,39.05
2018-07-30T23:17:18.107Z,39.55
2018-07-30T23:22:10.678Z,39.81
2018-07-30T23:27:03.278Z,40.08
2018-07-30T23:31:55.825Z,39.41
2018-07-30T23:36:48.566Z,39.49
2018-07-30T23:41:41.071Z,39.72
2018-07-30T23:46:33.636Z,39.70
2018-07-30T23:51:26.303Z,40.78
2018-07-30T23:56:18.887Z,40.77
